Time;durP1;ratioP1;P1;durP2;ratioP2;P2;SDS_P1;SDS_P2;PMS_P1;PMS_P2;Temp;Humidity;BMP_temperature;BMP_pressure;BME280_temperature;BME280_humidity;BME280_pressure;Samples;Min_cycle;Max_cycle;Signal;HPM_P1;HPM_P2
2022/04/03 00:02:00;;;;;;;3.10;1.77;;;;;6.20;102167.00;;;;4974448;28;20203;-77
2022/04/03 00:04:27;;;;;;;2.92;1.70;;;;;6.30;102164.00;;;;4974473;28;20684;-78
2022/04/03 00:06:55;;;;;;;3.83;1.88;;;;;6.20;102168.00;;;;4974394;28;20257;-77
2022/04/03 00:09:23;;;;;;;3.38;1.52;;;;;6.20;102166.00;;;;4972333;28;20317;-78
2022/04/03 00:11:51;;;;;;;2.97;1.38;;;;;6.20;102165.00;;;;4977018;28;20253;-78
2022/04/03 00:14:18;;;;;;;2.67;1.48;;;;;6.20;102169.00;;;;4975758;28;20597;-78
2022/04/03 00:16:46;;;;;;;2.33;1.20;;;;;6.20;102163.00;;;;4974260;28;20225;-78
2022/04/03 00:19:14;;;;;;;2.00;1.10;;;;;6.10;102166.00;;;;4974334;28;20579;-78
2022/04/03 00:21:42;;;;;;;2.13;1.27;;;;;6.10;102164.00;;;;4974505;28;20205;-78
2022/04/03 00:24:10;;;;;;;2.95;1.20;;;;;6.10;102165.00;;;;4975052;28;20205;-78
2022/04/03 00:26:37;;;;;;;1.92;0.98;;;;;6.10;102175.00;;;;4976082;28;20680;-78
2022/04/03 00:29:05;;;;;;;2.00;1.20;;;;;6.10;102163.00;;;;4982107;28;20226;-78
2022/04/03 00:31:34;;;;;;;1.95;1.15;;;;;6.10;102164.00;;;;4972093;28;20237;-78
2022/04/03 00:34:01;;;;;;;2.45;1.20;;;;;6.10;102160.00;;;;4972379;28;20198;-78
2022/04/03 00:36:29;;;;;;;2.13;1.30;;;;;6.10;102147.00;;;;4971595;28;20215;-77
2022/04/03 00:38:57;;;;;;;1.55;1.00;;;;;6.10;102161.00;;;;4970881;28;20881;-78
2022/04/03 00:41:24;;;;;;;2.50;1.52;;;;;6.10;102153.00;;;;4971398;28;20676;-78
2022/04/03 00:43:52;;;;;;;4.10;2.10;;;;;6.00;102164.00;;;;4973970;28;20221;-78
2022/04/03 00:46:22;;;;;;;4.30;2.45;;;;;6.00;102161.00;;;;4984433;28;20198;-78
2022/04/03 00:48:50;;;;;;;3.08;1.92;;;;;6.00;102160.00;;;;4970803;28;20977;-78
2022/04/03 00:51:18;;;;;;;2.80;1.73;;;;;6.00;102167.00;;;;4970407;28;20237;-78
2022/04/03 00:53:47;;;;;;;3.35;1.85;;;;;6.00;102159.00;;;;4965987;28;20290;-79
2022/04/03 00:56:14;;;;;;;4.40;1.80;;;;;5.90;102164.00;;;;4970986;28;20199;-79
2022/04/03 00:58:44;;;;;;;3.25;1.63;;;;;5.90;102153.00;;;;4970260;28;20698;-79
2022/04/03 01:01:13;;;;;;;1.65;1.05;;;;;5.90;102160.00;;;;4968067;28;20205;-79
2022/04/03 01:03:41;;;;;;;2.28;1.40;;;;;5.90;102151.00;;;;4970227;28;20293;-79
2022/04/03 01:06:08;;;;;;;1.63;1.13;;;;;5.90;102156.00;;;;4969040;28;20194;-79
2022/04/03 01:08:36;;;;;;;3.70;1.58;;;;;5.90;102155.00;;;;4969906;28;20226;-79
2022/04/03 01:11:04;;;;;;;2.17;1.40;;;;;5.80;102159.00;;;;4970010;28;20199;-79
2022/04/03 01:13:32;;;;;;;3.10;1.60;;;;;5.80;102158.00;;;;4966691;28;20198;-77
2022/04/03 01:16:00;;;;;;;3.05;1.80;;;;;5.80;102156.00;;;;4970765;28;20257;-77
2022/04/03 01:18:28;;;;;;;2.55;1.55;;;;;5.80;102152.00;;;;4977755;28;20230;-77
2022/04/03 01:20:56;;;;;;;3.22;1.90;;;;;5.80;102159.00;;;;4989339;28;20193;-77
2022/04/03 01:23:25;;;;;;;3.03;1.80;;;;;5.80;102156.00;;;;4970955;28;20219;-77
2022/04/03 01:25:53;;;;;;;3.47;1.50;;;;;5.90;102157.00;;;;4969535;28;20297;-77
2022/04/03 01:28:21;;;;;;;5.03;2.03;;;;;5.90;102157.00;;;;4969911;28;20692;-77
2022/04/03 01:30:49;;;;;;;4.38;1.83;;;;;5.90;102153.00;;;;4969866;28;20253;-77
2022/04/03 01:33:16;;;;;;;2.33;1.55;;;;;5.90;102144.00;;;;4969782;28;20206;-77
2022/04/03 01:35:44;;;;;;;3.28;1.40;;;;;5.90;102149.00;;;;4980781;28;20676;-77
2022/04/03 01:38:11;;;;;;;3.35;1.85;;;;;5.90;102150.00;;;;4988948;28;20759;-77
2022/04/03 01:40:38;;;;;;;4.15;1.70;;;;;5.90;102150.00;;;;4989822;28;20206;-78
2022/04/03 01:43:10;;;;;;;4.18;2.03;;;;;5.90;102148.00;;;;4989356;28;20198;-77
2022/04/03 01:45:38;;;;;;;7.07;2.00;;;;;5.90;102137.00;;;;4973074;28;20204;-77
2022/04/03 01:48:08;;;;;;;2.20;1.42;;;;;5.90;102140.00;;;;4969928;28;20190;-77
2022/04/03 01:50:35;;;;;;;3.20;1.75;;;;;5.90;102150.00;;;;4969498;28;20190;-78
2022/04/03 01:53:03;;;;;;;4.50;2.15;;;;;5.90;102147.00;;;;4970344;28;20586;-77
2022/04/03 01:55:31;;;;;;;2.30;1.30;;;;;5.90;102151.00;;;;4968650;28;20744;-78
2022/04/03 01:57:58;;;;;;;2.10;1.35;;;;;5.90;102149.00;;;;4968237;28;20213;-77
2022/04/03 02:00:27;;;;;;;2.53;1.40;;;;;5.90;102146.00;;;;4969354;28;20724;-77
2022/04/03 02:02:54;;;;;;;2.22;1.30;;;;;5.90;102136.00;;;;4968301;28;20297;-77
2022/04/03 02:05:21;;;;;;;1.52;0.80;;;;;5.90;102139.00;;;;4968653;28;20198;-78
2022/04/03 02:07:48;;;;;;;1.55;0.98;;;;;5.90;102135.00;;;;4968769;28;21031;-78
2022/04/03 02:10:16;;;;;;;2.92;1.50;;;;;5.80;102132.00;;;;4969793;28;20727;-78
2022/04/03 02:12:43;;;;;;;2.83;1.58;;;;;5.80;102133.00;;;;4958511;28;20254;-78
2022/04/03 02:15:12;;;;;;;2.72;1.40;;;;;5.80;102132.00;;;;4969807;28;20289;-78
2022/04/03 02:17:41;;;;;;;3.63;1.88;;;;;5.80;102128.00;;;;4969616;28;20324;-78
2022/04/03 02:20:10;;;;;;;2.25;1.38;;;;;5.80;102135.00;;;;4969628;28;20214;-78
2022/04/03 02:22:37;;;;;;;3.00;1.63;;;;;5.80;102141.00;;;;4969879;28;20236;-77
2022/04/03 02:25:09;;;;;;;2.22;1.27;;;;;5.80;102136.00;;;;4969688;28;20221;-77
2022/04/03 02:27:38;;;;;;;1.95;1.20;;;;;5.70;102142.00;;;;4976908;28;20712;-78
2022/04/03 02:30:08;;;;;;;2.92;1.27;;;;;5.70;102137.00;;;;4969529;28;20237;-78
2022/04/03 02:32:37;;;;;;;1.70;0.75;;;;;5.70;102138.00;;;;4969249;28;20271;-78
2022/04/03 02:35:07;;;;;;;2.10;0.90;;;;;5.70;102140.00;;;;4969566;28;20329;-78
2022/04/03 02:37:34;;;;;;;1.67;0.95;;;;;5.70;102144.00;;;;4968616;28;20232;-78
2022/04/03 02:40:02;;;;;;;1.88;1.08;;;;;5.70;102141.00;;;;4969733;28;20202;-78
2022/04/03 02:42:29;;;;;;;1.58;0.80;;;;;5.70;102137.00;;;;4966878;28;21612;-78
2022/04/03 02:44:57;;;;;;;2.35;1.23;;;;;5.70;102141.00;;;;4985862;28;20202;-78
2022/04/03 02:47:24;;;;;;;1.73;0.80;;;;;5.70;102142.00;;;;4958165;28;20203;-77
2022/04/03 02:49:52;;;;;;;1.83;0.98;;;;;5.70;102144.00;;;;4963168;28;20230;-77
2022/04/03 02:52:21;;;;;;;1.25;0.65;;;;;5.60;102134.00;;;;4968661;28;20239;-77
2022/04/03 02:54:49;;;;;;;1.45;0.82;;;;;5.70;102140.00;;;;4969486;28;20209;-77
2022/04/03 02:57:18;;;;;;;1.70;0.90;;;;;5.70;102137.00;;;;4972549;28;20620;-77
2022/04/03 02:59:45;;;;;;;1.58;1.02;;;;;5.70;102138.00;;;;4972763;28;20209;-77
2022/04/03 03:02:13;;;;;;;1.52;0.88;;;;;5.70;102140.00;;;;4972535;28;20747;-77
2022/04/03 03:04:40;;;;;;;1.88;1.00;;;;;5.70;102134.00;;;;4973541;28;20210;-77
2022/04/03 03:07:09;;;;;;;1.73;1.00;;;;;5.70;102141.00;;;;4972416;28;20620;-77
2022/04/03 03:09:38;;;;;;;1.80;0.70;;;;;5.60;102140.00;;;;4972376;28;20280;-78
2022/04/03 03:12:06;;;;;;;1.67;0.88;;;;;5.70;102133.00;;;;4972891;28;20599;-78
2022/04/03 03:14:33;;;;;;;1.30;1.05;;;;;5.70;102133.00;;;;4972540;28;20640;-78
2022/04/03 03:17:02;;;;;;;2.65;1.30;;;;;5.70;102136.00;;;;4971558;28;20233;-77
2022/04/03 03:19:29;;;;;;;1.40;0.80;;;;;5.70;102126.00;;;;4984951;28;20281;-77
2022/04/03 03:21:56;;;;;;;1.17;0.82;;;;;5.70;102122.00;;;;4985644;28;20190;-77
2022/04/03 03:24:23;;;;;;;1.50;0.98;;;;;5.80;102131.00;;;;4972879;28;20213;-77
2022/04/03 03:26:52;;;;;;;2.60;1.40;;;;;5.80;102132.00;;;;4973439;28;20202;-76
2022/04/03 03:29:19;;;;;;;2.30;1.08;;;;;5.90;102132.00;;;;4972852;28;20229;-77
2022/04/03 03:31:47;;;;;;;1.45;1.05;;;;;5.90;102128.00;;;;4972509;28;20630;-77
2022/04/03 03:34:14;;;;;;;1.23;0.95;;;;;5.90;102130.00;;;;4979134;28;20202;-77
2022/04/03 03:36:41;;;;;;;1.48;0.93;;;;;6.00;102130.00;;;;4975292;28;20214;-77
2022/04/03 03:39:09;;;;;;;1.13;0.80;;;;;6.00;102129.00;;;;4973478;28;20205;-78
2022/04/03 03:41:36;;;;;;;2.13;1.10;;;;;6.00;102127.00;;;;4972767;28;20194;-77
2022/04/03 03:44:10;;;;;;;2.65;1.10;;;;;6.00;102128.00;;;;4972782;28;20202;-77
2022/04/03 03:46:37;;;;;;;2.00;1.10;;;;;6.10;102131.00;;;;4972053;28;20210;-78
2022/04/03 03:49:06;;;;;;;1.90;1.15;;;;;6.10;102132.00;;;;4972049;28;21069;-78
2022/04/03 03:51:34;;;;;;;2.75;1.50;;;;;6.10;102130.00;;;;4972713;28;20250;-78
2022/04/03 03:54:01;;;;;;;5.18;1.70;;;;;6.10;102133.00;;;;4972758;28;20226;-77
2022/04/03 03:56:28;;;;;;;2.33;1.40;;;;;6.10;102118.00;;;;4972195;28;20205;-77
2022/04/03 03:58:56;;;;;;;2.92;1.48;;;;;6.10;102131.00;;;;4971539;28;20210;-77
2022/04/03 04:01:25;;;;;;;2.38;1.60;;;;;6.10;102118.00;;;;4971787;28;20201;-77
2022/04/03 04:03:52;;;;;;;2.47;1.52;;;;;6.10;102129.00;;;;4972133;28;20611;-77
2022/04/03 04:06:19;;;;;;;2.20;1.40;;;;;6.10;102122.00;;;;4971606;28;20202;-76
2022/04/03 04:08:46;;;;;;;1.45;1.15;;;;;6.10;102129.00;;;;4978192;28;20620;-77
2022/04/03 04:11:14;;;;;;;1.80;1.30;;;;;6.10;102132.00;;;;4970778;28;20249;-77
2022/04/03 04:13:41;;;;;;;1.70;1.15;;;;;6.10;102131.00;;;;4970368;28;20209;-77
2022/04/03 04:16:10;;;;;;;2.08;1.55;;;;;6.10;102134.00;;;;4967171;28;20198;-77
2022/04/03 04:18:38;;;;;;;1.95;1.10;;;;;6.10;102136.00;;;;4965326;28;20305;-77
2022/04/03 04:21:06;;;;;;;2.55;1.17;;;;;6.10;102134.00;;;;4970981;28;20603;-78
2022/04/03 04:23:34;;;;;;;1.75;1.15;;;;;6.10;102137.00;;;;4971270;28;21042;-77
2022/04/03 04:26:02;;;;;;;1.88;1.00;;;;;6.10;102144.00;;;;4974145;28;20253;-78
2022/04/03 04:28:29;;;;;;;2.03;1.17;;;;;6.10;102138.00;;;;4979569;28;20216;-78
2022/04/03 04:30:57;;;;;;;1.80;1.17;;;;;6.10;102135.00;;;;4972572;28;20230;-78
2022/04/03 04:33:25;;;;;;;5.32;1.25;;;;;6.10;102139.00;;;;4971749;28;20206;-77
2022/04/03 04:35:54;;;;;;;1.67;1.40;;;;;6.10;102140.00;;;;4971395;28;20194;-78
2022/04/03 04:38:21;;;;;;;1.80;1.10;;;;;6.10;102144.00;;;;4971490;28;20635;-78
2022/04/03 04:40:48;;;;;;;1.77;1.00;;;;;6.10;102141.00;;;;4971212;28;20281;-77
2022/04/03 04:43:16;;;;;;;1.55;1.08;;;;;6.10;102136.00;;;;4977358;28;20203;-77
2022/04/03 04:45:43;;;;;;;3.72;1.20;;;;;6.10;102144.00;;;;4970635;28;20217;-78
2022/04/03 04:48:11;;;;;;;1.88;1.17;;;;;6.10;102146.00;;;;4971532;28;20657;-77
2022/04/03 04:50:38;;;;;;;1.77;1.17;;;;;6.10;102148.00;;;;4970404;28;20226;-78
2022/04/03 04:53:07;;;;;;;1.70;1.15;;;;;6.00;102150.00;;;;4971043;28;20552;-78
2022/04/03 04:55:34;;;;;;;1.65;0.70;;;;;6.00;102148.00;;;;4970713;28;20203;-77
2022/04/03 04:58:01;;;;;;;1.48;0.95;;;;;6.10;102150.00;;;;4970933;28;20433;-78
2022/04/03 05:00:30;;;;;;;2.22;1.08;;;;;6.00;102154.00;;;;4973415;28;20206;-77
2022/04/03 05:02:58;;;;;;;1.33;0.93;;;;;6.00;102153.00;;;;4970965;28;20309;-78
2022/04/03 05:05:27;;;;;;;2.17;1.35;;;;;6.10;102152.00;;;;4969717;28;20202;-77
2022/04/03 05:07:56;;;;;;;1.40;0.95;;;;;6.00;102146.00;;;;4970699;28;20229;-78
2022/04/03 05:10:26;;;;;;;3.20;1.48;;;;;6.00;102151.00;;;;4970144;28;20218;-77
2022/04/03 05:12:55;;;;;;;2.88;1.45;;;;;6.00;102153.00;;;;4971243;28;20194;-77
2022/04/03 05:15:22;;;;;;;1.60;1.00;;;;;6.00;102153.00;;;;4970787;28;20286;-78
2022/04/03 05:17:50;;;;;;;1.50;1.25;;;;;6.00;102153.00;;;;4974943;28;20238;-77
2022/04/03 05:20:18;;;;;;;2.15;1.27;;;;;6.00;102148.00;;;;4969508;28;20210;-78
2022/04/03 05:22:45;;;;;;;1.95;1.25;;;;;6.00;102154.00;;;;4970943;28;20206;-78
2022/04/03 05:25:13;;;;;;;1.90;1.33;;;;;6.00;102147.00;;;;4958326;28;20609;-79
2022/04/03 05:27:44;;;;;;;2.05;1.33;;;;;5.90;102147.00;;;;4970866;28;20703;-78
2022/04/03 05:30:15;;;;;;;2.15;1.23;;;;;5.90;102155.00;;;;4969409;28;20685;-79
2022/04/03 05:32:42;;;;;;;3.20;1.75;;;;;6.00;102156.00;;;;4971162;28;20209;-78
2022/04/03 05:35:11;;;;;;;1.27;0.80;;;;;5.90;102156.00;;;;4970459;28;20202;-79
2022/04/03 05:37:38;;;;;;;1.23;0.93;;;;;5.90;102152.00;;;;4970889;28;20191;-79
2022/04/03 05:40:07;;;;;;;2.22;1.48;;;;;5.90;102159.00;;;;4970860;28;20260;-79
2022/04/03 05:42:35;;;;;;;2.25;1.42;;;;;5.90;102152.00;;;;4970446;28;20641;-79
2022/04/03 05:45:09;;;;;;;2.15;1.40;;;;;5.90;102152.00;;;;4970211;28;20289;-79
2022/04/03 05:47:38;;;;;;;2.80;1.55;;;;;5.90;102149.00;;;;4967194;28;20202;-78
2022/04/03 05:50:06;;;;;;;2.70;2.00;;;;;5.90;102151.00;;;;4961396;28;20228;-78
2022/04/03 05:52:41;;;;;;;2.60;1.42;;;;;5.90;102156.00;;;;4971915;28;20206;-78
2022/04/03 05:55:09;;;;;;;2.13;1.15;;;;;5.90;102162.00;;;;4971333;28;20292;-78
2022/04/03 05:57:38;;;;;;;2.67;1.45;;;;;6.00;102148.00;;;;4972308;28;20671;-78
2022/04/03 06:00:12;;;;;;;2.40;1.58;;;;;6.00;102153.00;;;;4972229;28;20202;-78
2022/04/03 06:02:58;;;;;;;2.45;1.38;;;;;5.90;102156.00;;;;4972150;28;20202;-77
2022/04/03 06:05:27;;;;;;;1.63;1.13;;;;;6.10;102158.00;;;;4969859;28;20194;-78
2022/04/03 06:07:55;;;;;;;2.03;1.60;;;;;6.10;102161.00;;;;4975544;28;20202;-79
2022/04/03 06:10:27;;;;;;;3.03;1.60;;;;;6.10;102157.00;;;;4967689;28;20723;-79
2022/04/03 06:12:56;;;;;;;2.38;1.52;;;;;6.20;102158.00;;;;4968398;28;21018;-77
2022/04/03 06:15:27;;;;;;;1.77;1.20;;;;;6.20;102161.00;;;;4969024;28;20202;-77
2022/04/03 06:17:54;;;;;;;2.28;1.58;;;;;6.30;102158.00;;;;4966679;28;20234;-78
2022/04/03 06:20:23;;;;;;;2.65;1.77;;;;;6.30;102173.00;;;;4966963;28;20206;-78
2022/04/03 06:22:52;;;;;;;2.40;1.27;;;;;6.40;102167.00;;;;4967027;28;20206;-78
2022/04/03 06:25:20;;;;;;;2.85;1.90;;;;;6.50;102172.00;;;;4969524;28;20207;-78
2022/04/03 06:27:48;;;;;;;2.30;1.40;;;;;6.50;102171.00;;;;4969306;28;20230;-78
2022/04/03 06:30:16;;;;;;;2.50;1.40;;;;;6.60;102166.00;;;;4969602;28;20230;-78
2022/04/03 06:32:46;;;;;;;2.70;1.67;;;;;6.60;102176.00;;;;4969261;28;21459;-78
2022/04/03 06:35:14;;;;;;;2.72;1.83;;;;;6.70;102169.00;;;;4969756;28;20294;-78
2022/04/03 06:37:42;;;;;;;1.95;1.25;;;;;6.80;102171.00;;;;4969023;28;20198;-78
2022/04/03 06:40:11;;;;;;;2.05;1.35;;;;;6.80;102173.00;;;;4967962;28;20240;-78
2022/04/03 06:42:39;;;;;;;1.55;1.13;;;;;6.90;102167.00;;;;4970734;28;20199;-78
2022/04/03 06:45:14;;;;;;;3.00;1.55;;;;;7.00;102167.00;;;;4967869;28;20200;-77
2022/04/03 06:47:41;;;;;;;3.22;1.73;;;;;7.00;102175.00;;;;4967014;28;20668;-79
2022/04/03 06:50:11;;;;;;;3.90;2.05;;;;;7.10;102177.00;;;;4968405;28;20576;-79
2022/04/03 06:52:39;;;;;;;3.20;2.08;;;;;7.20;102180.00;;;;4968173;28;20195;-79
2022/04/03 06:55:08;;;;;;;3.35;2.40;;;;;7.30;102184.00;;;;4968327;28;20207;-78
2022/04/03 06:57:36;;;;;;;3.47;2.00;;;;;7.40;102181.00;;;;4969883;28;20198;-78
2022/04/03 07:00:06;;;;;;;4.55;2.50;;;;;7.50;102180.00;;;;4968445;28;20253;-78
2022/04/03 07:02:34;;;;;;;4.43;2.50;;;;;7.60;102183.00;;;;4967215;28;20665;-79
2022/04/03 07:05:01;;;;;;;3.60;2.78;;;;;7.70;102191.00;;;;4968580;28;21044;-78
2022/04/03 07:07:30;;;;;;;4.80;3.35;;;;;7.80;102188.00;;;;4968054;28;20233;-79
2022/04/03 07:09:57;;;;;;;5.55;3.42;;;;;7.90;102180.00;;;;4968226;28;20771;-79
2022/04/03 07:12:25;;;;;;;6.97;3.90;;;;;8.10;102185.00;;;;4968597;28;20443;-79
2022/04/03 07:14:52;;;;;;;3.55;2.75;;;;;8.20;102181.00;;;;4974103;28;20284;-76
2022/04/03 07:17:20;;;;;;;5.22;3.35;;;;;8.40;102184.00;;;;4978992;28;20249;-79
2022/04/03 07:19:48;;;;;;;4.28;3.08;;;;;8.50;102186.00;;;;4968278;28;20740;-78
2022/04/03 07:22:16;;;;;;;5.15;3.10;;;;;8.70;102187.00;;;;4968044;28;20206;-78
2022/04/03 07:24:44;;;;;;;3.85;2.72;;;;;8.80;102192.00;;;;4966370;28;20210;-77
2022/04/03 07:27:12;;;;;;;3.63;2.72;;;;;8.90;102191.00;;;;4967926;28;20290;-78
2022/04/03 07:29:39;;;;;;;2.58;2.25;;;;;9.00;102187.00;;;;4968552;28;20206;-78
2022/04/03 07:32:07;;;;;;;4.25;2.97;;;;;9.10;102189.00;;;;4969957;28;20226;-78
2022/04/03 07:34:34;;;;;;;2.80;2.05;;;;;9.20;102187.00;;;;4967602;28;20199;-78
2022/04/03 07:37:02;;;;;;;3.45;2.40;;;;;9.20;102188.00;;;;4968765;28;20202;-77
2022/04/03 07:39:30;;;;;;;2.85;2.40;;;;;9.30;102190.00;;;;4969113;28;20588;-79
2022/04/03 07:41:59;;;;;;;4.03;2.40;;;;;9.30;102189.00;;;;4970006;28;20706;-77
2022/04/03 07:44:26;;;;;;;3.88;2.65;;;;;9.40;102189.00;;;;4970935;28;20619;-78
2022/04/03 07:46:54;;;;;;;3.15;2.25;;;;;9.40;102190.00;;;;4973185;28;20203;-77
2022/04/03 07:49:21;;;;;;;4.25;2.42;;;;;9.50;102190.00;;;;4970565;28;20202;-78
2022/04/03 07:51:49;;;;;;;3.72;2.75;;;;;9.50;102191.00;;;;4969969;28;20232;-78
2022/04/03 07:54:16;;;;;;;2.67;2.08;;;;;9.60;102190.00;;;;4970819;28;20211;-78
2022/04/03 07:56:44;;;;;;;3.25;2.13;;;;;9.70;102199.00;;;;4971650;28;20716;-80
2022/04/03 07:59:12;;;;;;;2.67;2.20;;;;;9.80;102192.00;;;;4970169;28;20199;-78
2022/04/03 08:01:41;;;;;;;4.63;2.40;;;;;9.90;102195.00;;;;4970590;28;20213;-78
2022/04/03 08:04:10;;;;;;;3.08;2.20;;;;;10.00;102194.00;;;;4971896;28;20217;-79
2022/04/03 08:06:38;;;;;;;3.97;1.95;;;;;10.10;102197.00;;;;4973483;28;20210;-79
2022/04/03 08:09:05;;;;;;;4.00;2.20;;;;;10.20;102192.00;;;;4972525;28;20206;-79
2022/04/03 08:11:33;;;;;;;1.80;1.30;;;;;10.30;102202.00;;;;4970244;28;20249;-79
2022/04/03 08:14:01;;;;;;;2.10;1.50;;;;;10.40;102197.00;;;;4975847;28;20201;-79
2022/04/03 08:16:30;;;;;;;1.20;1.00;;;;;10.50;102196.00;;;;4976193;28;20636;-78
2022/04/03 08:18:57;;;;;;;1.95;1.13;;;;;10.70;102201.00;;;;4971341;28;20210;-79
2022/04/03 08:21:26;;;;;;;2.25;1.10;;;;;10.80;102201.00;;;;4969990;28;20218;-79
2022/04/03 08:23:53;;;;;;;2.08;0.95;;;;;11.00;102197.00;;;;4983331;28;20564;-80
2022/04/03 08:26:25;;;;;;;2.78;1.40;;;;;11.10;102202.00;;;;4974853;28;20653;-79
2022/04/03 08:28:53;;;;;;;1.30;1.10;;;;;11.20;102206.00;;;;4970128;28;20195;-79
2022/04/03 08:31:22;;;;;;;1.98;0.98;;;;;11.30;102206.00;;;;4970717;28;20281;-79
2022/04/03 08:33:51;;;;;;;1.23;1.05;;;;;11.40;102198.00;;;;4971401;28;20199;-79
2022/04/03 08:36:19;;;;;;;1.25;0.90;;;;;11.50;102204.00;;;;4970960;28;20205;-79
2022/04/03 08:38:47;;;;;;;1.15;0.90;;;;;11.60;102202.00;;;;4971382;28;20209;-79
2022/04/03 08:41:15;;;;;;;1.30;0.90;;;;;11.70;102205.00;;;;4979298;28;20279;-80
2022/04/03 08:43:42;;;;;;;1.38;0.75;;;;;11.80;102204.00;;;;4969776;28;20202;-79
2022/04/03 08:46:09;;;;;;;1.35;0.60;;;;;11.90;102203.00;;;;4971391;28;20210;-79
2022/04/03 08:48:42;;;;;;;1.70;0.82;;;;;12.00;102203.00;;;;4971651;28;20206;-79
2022/04/03 08:51:11;;;;;;;0.90;0.68;;;;;12.20;102207.00;;;;4968356;28;20230;-81
2022/04/03 08:53:40;;;;;;;0.70;0.60;;;;;12.20;102203.00;;;;4966574;28;20203;-80
2022/04/03 08:56:08;;;;;;;0.70;0.40;;;;;12.30;102205.00;;;;4969546;28;20213;-80
2022/04/03 08:58:35;;;;;;;1.77;0.80;;;;;12.40;102201.00;;;;4975913;28;20268;-79
2022/04/03 09:01:02;;;;;;;0.57;0.38;;;;;12.50;102206.00;;;;4970281;28;21069;-82
2022/04/03 09:03:30;;;;;;;1.35;0.57;;;;;12.60;102205.00;;;;4970903;28;21003;-79
2022/04/03 09:08:51;;;;;;;1.00;0.47;;;;;12.90;102201.00;;;;5068406;28;20569;-77
2022/04/03 09:11:19;;;;;;;2.15;0.75;;;;;13.10;102197.00;;;;5058885;28;20187;-77
2022/04/03 09:13:47;;;;;;;2.42;0.50;;;;;13.20;102199.00;;;;5061455;28;20290;-77
2022/04/03 09:16:14;;;;;;;1.70;0.65;;;;;13.40;102189.00;;;;5059148;28;20202;-78
2022/04/03 09:18:46;;;;;;;0.82;0.60;;;;;13.60;102185.00;;;;5061743;28;20788;-79
2022/04/03 09:21:21;;;;;;;0.75;0.45;;;;;13.80;102187.00;;;;5060630;28;20203;-80
2022/04/03 09:24:02;;;;;;;0.30;0.20;;;;;13.80;102194.00;;;;5061530;28;20209;-79
2022/04/03 09:26:30;;;;;;;0.70;0.43;;;;;13.90;102195.00;;;;5063471;28;20207;-77
2022/04/03 09:29:08;;;;;;;0.80;0.43;;;;;13.80;102188.00;;;;5064820;28;20253;-79
2022/04/03 09:31:35;;;;;;;0.93;0.47;;;;;13.90;102192.00;;;;5059441;28;20253;-78
2022/04/03 09:34:03;;;;;;;0.60;0.40;;;;;13.80;102198.00;;;;5063570;28;20207;-78
2022/04/03 09:36:32;;;;;;;1.85;0.73;;;;;13.80;102197.00;;;;5063725;28;20199;-79
2022/04/03 09:39:12;;;;;;;0.57;0.13;;;;;13.70;102193.00;;;;5063756;28;20653;-78
2022/04/03 09:42:00;;;;;;;0.90;0.30;;;;;13.70;102186.00;;;;5064485;28;20203;-79
2022/04/03 09:44:29;;;;;;;1.13;0.55;;;;;13.80;102191.00;;;;5064494;28;20653;-79
2022/04/03 09:47:17;;;;;;;0.88;0.25;;;;;13.80;102189.00;;;;5062250;28;20214;-78
2022/04/03 09:49:50;;;;;;;0.52;0.28;;;;;13.90;102183.00;;;;5063451;28;20230;-78
2022/04/03 09:52:33;;;;;;;2.63;0.68;;;;;13.80;102183.00;;;;5063175;28;20950;-78
2022/04/03 09:55:02;;;;;;;1.40;0.32;;;;;13.90;102191.00;;;;5063785;28;20272;-79
2022/04/03 09:57:30;;;;;;;0.90;0.50;;;;;14.00;102188.00;;;;5064421;28;20187;-79
2022/04/03 09:59:57;;;;;;;0.93;0.52;;;;;14.00;102177.00;;;;5064521;28;20256;-80
2022/04/03 10:02:25;;;;;;;3.70;0.70;;;;;14.00;102181.00;;;;5063668;28;20199;-79
2022/04/03 10:04:52;;;;;;;1.15;0.40;;;;;14.10;102181.00;;;;5063063;28;20203;-78
2022/04/03 10:07:21;;;;;;;0.60;0.35;;;;;14.20;102172.00;;;;5061972;28;20235;-78
2022/04/03 10:09:50;;;;;;;0.70;0.30;;;;;14.30;102169.00;;;;5061480;28;20197;-79
2022/04/03 10:12:21;;;;;;;1.23;0.70;;;;;14.30;102171.00;;;;5062241;28;20857;-78
2022/04/03 10:14:50;;;;;;;2.45;0.93;;;;;14.30;102187.00;;;;5052710;28;20197;-79
2022/04/03 10:17:20;;;;;;;1.55;0.90;;;;;14.30;102177.00;;;;5053265;28;20219;-79
2022/04/03 10:19:48;;;;;;;1.05;0.73;;;;;14.30;102191.00;;;;5052110;28;20204;-79
2022/04/03 10:22:21;;;;;;;1.17;0.73;;;;;14.20;102179.00;;;;5045420;28;20191;-78
2022/04/03 10:24:54;;;;;;;1.10;0.60;;;;;14.20;102185.00;;;;5046974;28;20195;-78
2022/04/03 10:27:30;;;;;;;2.50;0.75;;;;;14.10;102181.00;;;;5043924;28;20219;-78
2022/04/03 10:30:00;;;;;;;1.42;0.73;;;;;14.10;102182.00;;;;5042006;28;20200;-78
2022/04/03 10:32:30;;;;;;;1.08;0.63;;;;;14.00;102179.00;;;;5048172;28;20227;-78
2022/04/03 10:34:59;;;;;;;2.22;0.95;;;;;14.00;102184.00;;;;5043102;28;20249;-79
2022/04/03 10:37:31;;;;;;;1.40;0.98;;;;;13.90;102177.00;;;;5048689;28;20191;-77
2022/04/03 10:40:07;;;;;;;1.23;0.80;;;;;13.70;102172.00;;;;5041630;28;20594;-78
2022/04/03 10:42:50;;;;;;;1.17;0.70;;;;;13.60;102161.00;;;;5034891;28;20879;-78
2022/04/03 10:45:25;;;;;;;0.90;0.80;;;;;13.60;102170.00;;;;5035971;28;20230;-78
2022/04/03 10:47:54;;;;;;;0.98;0.52;;;;;13.50;102166.00;;;;5050073;28;20218;-79
2022/04/03 10:50:22;;;;;;;0.90;0.50;;;;;13.50;102162.00;;;;5047015;28;20299;-78
2022/04/03 10:52:59;;;;;;;1.45;0.38;;;;;13.50;102171.00;;;;5048344;28;20199;-78
2022/04/03 10:55:29;;;;;;;0.65;0.28;;;;;13.50;102160.00;;;;5030104;28;20299;-78
2022/04/03 10:58:03;;;;;;;0.95;0.40;;;;;13.60;102153.00;;;;5041146;28;20203;-78
2022/04/03 11:00:32;;;;;;;0.82;0.20;;;;;13.70;102154.00;;;;5049838;28;20265;-78
2022/04/03 11:03:30;;;;;;;0.22;0.20;;;;;13.70;102156.00;;;;5033649;28;20219;-78
2022/04/03 11:05:57;;;;;;;0.68;0.32;;;;;13.90;102140.00;;;;5049671;28;20290;-78
2022/04/03 11:08:43;;;;;;;0.75;0.20;;;;;13.90;102143.00;;;;5037250;28;20238;-78
2022/04/03 11:11:11;;;;;;;0.45;0.20;;;;;14.10;102149.00;;;;5041230;28;20200;-78
2022/04/03 11:13:42;;;;;;;0.77;0.20;;;;;14.10;102141.00;;;;5030491;28;20318;-78
2022/04/03 11:16:10;;;;;;;1.73;0.30;;;;;14.30;102139.00;;;;5040950;28;20301;-79
2022/04/03 11:18:39;;;;;;;0.65;0.30;;;;;14.40;102144.00;;;;5042735;28;20295;-78
2022/04/03 11:21:11;;;;;;;0.20;0.10;;;;;14.50;102137.00;;;;5040123;28;20287;-78
2022/04/03 11:23:41;;;;;;;0.30;0.20;;;;;14.60;102125.00;;;;5038538;28;20200;-79
2022/04/03 11:26:09;;;;;;;0.20;0.20;;;;;14.70;102113.00;;;;5033810;28;20200;-78
2022/04/03 11:28:36;;;;;;;0.65;0.28;;;;;14.80;102126.00;;;;5044537;28;20227;-78
2022/04/03 11:31:09;;;;;;;1.42;0.60;;;;;14.90;102117.00;;;;5035172;28;20634;-79
2022/04/03 11:33:36;;;;;;;0.57;0.22;;;;;15.10;102126.00;;;;5032740;28;20192;-79
2022/04/03 11:36:06;;;;;;;0.95;0.50;;;;;15.20;102117.00;;;;5049057;28;20199;-79
2022/04/03 11:38:37;;;;;;;0.70;0.30;;;;;15.30;102121.00;;;;5036837;28;20192;-78
2022/04/03 11:41:07;;;;;;;0.57;0.40;;;;;15.50;102118.00;;;;5034534;28;20203;-79
2022/04/03 11:43:35;;;;;;;2.08;0.30;;;;;15.60;102103.00;;;;5036479;28;20593;-78
2022/04/03 11:46:06;;;;;;;0.82;0.50;;;;;15.80;102116.00;;;;5045425;28;20287;-78
2022/04/03 11:48:36;;;;;;;0.47;0.30;;;;;15.90;102107.00;;;;5028849;28;20228;-78
2022/04/03 11:51:11;;;;;;;0.70;0.30;;;;;16.00;102101.00;;;;5038552;28;20199;-78
2022/04/03 11:53:40;;;;;;;0.70;0.50;;;;;16.10;102097.00;;;;5035359;28;20661;-78
2022/04/03 11:56:10;;;;;;;3.70;0.73;;;;;16.20;102109.00;;;;5042873;28;20315;-78
2022/04/03 11:58:40;;;;;;;0.40;0.30;;;;;16.20;102108.00;;;;5040021;28;20271;-78
2022/04/03 12:01:09;;;;;;;0.25;0.20;;;;;16.20;102105.00;;;;5041792;28;20251;-77
2022/04/03 12:03:37;;;;;;;0.47;0.20;;;;;16.20;102102.00;;;;5029165;28;20289;-78
2022/04/03 12:06:13;;;;;;;0.85;0.30;;;;;16.10;102100.00;;;;5047210;28;20573;-78
2022/04/03 12:08:40;;;;;;;0.20;0.20;;;;;16.10;102092.00;;;;5047970;28;20243;-78
2022/04/03 12:11:23;;;;;;;0.32;0.20;;;;;16.00;102096.00;;;;5042782;28;20581;-77
2022/04/03 12:13:50;;;;;;;1.10;0.20;;;;;16.00;102095.00;;;;5042801;28;20274;-78
2022/04/03 12:16:22;;;;;;;0.85;0.10;;;;;15.80;102102.00;;;;5047517;28;20619;-77
2022/04/03 12:19:00;;;;;;;0.50;0.30;;;;;15.70;102105.00;;;;5044556;28;20650;-78
2022/04/03 12:21:42;;;;;;;0.98;0.35;;;;;15.60;102112.00;;;;5045035;28;20199;-78
2022/04/03 12:24:11;;;;;;;0.88;0.38;;;;;15.50;102120.00;;;;5041283;28;20207;-78
2022/04/03 12:26:40;;;;;;;0.60;0.32;;;;;15.40;102119.00;;;;5046384;28;20215;-78